Time;durP1;ratioP1;P1;durP2;ratioP2;P2;SDS_P1;SDS_P2;PMS_P1;PMS_P2;Temp;Humidity;BMP_temperature;BMP_pressure;BME280_temperature;BME280_humidity;BME280_pressure;Samples;Min_cycle;Max_cycle;Signal;HPM_P1;HPM_P2
2022/06/20 00:00:21;;;;;;;28.05;9.15;;;19.70;99.90;;;;;;5073394;28;20065;-55
2022/06/20 00:02:50;;;;;;;26.13;10.23;;;19.60;99.90;;;;;;5071153;28;20021;-54
2022/06/20 00:05:21;;;;;;;32.67;10.10;;;19.60;99.90;;;;;;5085210;28;20063;-55
2022/06/20 00:07:47;;;;;;;29.25;10.00;;;19.60;99.90;;;;;;5089636;28;20584;-55
2022/06/20 00:10:15;;;;;;;25.65;9.90;;;19.60;99.90;;;;;;5081697;28;20119;-55
2022/06/20 00:12:42;;;;;;;27.88;9.63;;;19.50;99.90;;;;;;5070931;28;20025;-54
2022/06/20 00:15:12;;;;;;;30.77;10.27;;;19.50;99.90;;;;;;5070719;28;20383;-53
2022/06/20 00:17:37;;;;;;;32.88;9.07;;;19.50;99.90;;;;;;5070849;28;20078;-53
2022/06/20 00:20:03;;;;;;;34.53;10.32;;;19.40;99.90;;;;;;5078318;28;20024;-54
2022/06/20 00:22:29;;;;;;;27.95;10.30;;;19.40;99.90;;;;;;5072095;28;20039;-56
2022/06/20 00:24:55;;;;;;;40.85;9.88;;;19.30;99.90;;;;;;5069336;28;20032;-53
2022/06/20 00:27:20;;;;;;;26.83;10.48;;;19.30;99.90;;;;;;5103154;28;20054;-55
2022/06/20 00:29:48;;;;;;;34.40;10.25;;;19.40;99.90;;;;;;5071709;28;20365;-55
2022/06/20 00:32:13;;;;;;;30.40;10.77;;;19.30;99.90;;;;;;5089165;28;20039;-53
2022/06/20 00:34:39;;;;;;;31.38;9.30;;;19.30;99.90;;;;;;5090563;28;20407;-53
2022/06/20 00:37:06;;;;;;;32.55;9.85;;;19.30;99.90;;;;;;5073718;28;20048;-54
2022/06/20 00:39:32;;;;;;;22.30;9.48;;;19.20;99.90;;;;;;5070243;28;20048;-52
2022/06/20 00:42:00;;;;;;;30.38;10.30;;;19.20;99.90;;;;;;5081014;28;20044;-55
2022/06/20 00:44:33;;;;;;;32.33;10.68;;;19.20;99.90;;;;;;5090300;28;20479;-53
2022/06/20 00:47:22;;;;;;;36.92;10.07;;;19.10;99.90;;;;;;5088882;28;20517;-54
2022/06/20 00:49:54;;;;;;;35.05;10.75;;;19.00;99.90;;;;;;5089059;28;20494;-54
2022/06/20 00:52:44;;;;;;;25.20;10.27;;;19.00;99.90;;;;;;5079950;28;20170;-54
2022/06/20 00:55:19;;;;;;;24.98;10.90;;;19.00;99.90;;;;;;5070107;28;20042;-54
2022/06/20 00:58:07;;;;;;;30.10;10.13;;;19.10;99.90;;;;;;5075451;28;20020;-54
2022/06/20 01:00:37;;;;;;;32.72;8.48;;;19.00;99.90;;;;;;5073666;28;20040;-55
2022/06/20 01:03:33;;;;;;;26.83;9.90;;;19.00;99.90;;;;;;5085552;28;20024;-52
2022/06/20 01:06:13;;;;;;;26.15;9.80;;;19.00;99.90;;;;;;5073427;28;20036;-55
2022/06/20 01:08:46;;;;;;;29.00;9.02;;;19.00;99.90;;;;;;5090161;28;20032;-55
2022/06/20 01:11:21;;;;;;;33.38;10.00;;;19.00;99.90;;;;;;5088588;28;20421;-54
2022/06/20 01:13:47;;;;;;;32.35;10.63;;;18.90;99.90;;;;;;5070404;28;20039;-54
2022/06/20 01:16:12;;;;;;;25.50;9.68;;;18.80;99.90;;;;;;5079207;28;20391;-54
2022/06/20 01:18:40;;;;;;;27.77;9.60;;;18.80;99.90;;;;;;5090364;28;20055;-53
2022/06/20 01:21:12;;;;;;;37.53;10.43;;;18.90;99.90;;;;;;5088257;28;20031;-55
2022/06/20 01:23:58;;;;;;;26.77;9.73;;;18.90;99.90;;;;;;5070780;28;20028;-53
2022/06/20 01:26:35;;;;;;;37.20;10.05;;;18.90;99.90;;;;;;5070048;28;20488;-55
2022/06/20 01:29:04;;;;;;;48.47;10.13;;;18.80;99.90;;;;;;5071149;28;20450;-54
2022/06/20 01:31:37;;;;;;;31.38;10.18;;;18.70;99.90;;;;;;5079998;28;20024;-55
2022/06/20 01:34:04;;;;;;;39.58;10.90;;;18.80;99.90;;;;;;5069986;28;20016;-55
2022/06/20 01:39:21;;;;;;;27.73;10.25;;;18.70;99.90;;;;;;5088365;28;20040;-54
2022/06/20 01:44:38;;;;;;;32.70;9.38;;;18.70;99.90;;;;;;5088391;28;20078;-54
2022/06/20 01:47:04;;;;;;;27.65;10.48;;;18.70;99.90;;;;;;5089141;28;20459;-54
2022/06/20 01:49:33;;;;;;;27.45;9.52;;;18.70;99.90;;;;;;5090186;28;20032;-53
2022/06/20 01:52:06;;;;;;;40.67;11.90;;;18.70;99.90;;;;;;5084505;28;20142;-51
2022/06/20 01:54:40;;;;;;;26.77;10.35;;;18.70;99.90;;;;;;5071084;28;20032;-54
2022/06/20 01:57:09;;;;;;;35.15;10.90;;;18.70;99.90;;;;;;5069574;28;20360;-55
2022/06/20 01:59:39;;;;;;;31.10;9.43;;;18.70;99.90;;;;;;5088454;28;20468;-54
2022/06/20 02:02:05;;;;;;;25.85;10.45;;;18.70;99.90;;;;;;5082832;28;20033;-55
2022/06/20 02:04:34;;;;;;;21.73;11.18;;;18.50;99.90;;;;;;5072569;28;20115;-53
2022/06/20 02:07:02;;;;;;;37.13;10.93;;;18.50;99.90;;;;;;5073275;28;20035;-52
2022/06/20 02:09:28;;;;;;;36.83;11.23;;;18.50;99.90;;;;;;5085541;28;20020;-54
2022/06/20 02:11:54;;;;;;;39.80;11.13;;;18.50;99.90;;;;;;5091503;28;20028;-53
2022/06/20 02:14:28;;;;;;;29.05;10.13;;;18.50;99.90;;;;;;5093201;28;20036;-55
2022/06/20 02:17:05;;;;;;;32.72;11.23;;;18.50;99.90;;;;;;5076738;28;20082;-56
2022/06/20 02:19:34;;;;;;;31.70;10.35;;;18.50;99.90;;;;;;5071770;28;20065;-55
2022/06/20 02:22:04;;;;;;;26.25;9.88;;;18.40;99.90;;;;;;5076174;28;20023;-53
2022/06/20 02:24:38;;;;;;;34.60;10.70;;;18.40;99.90;;;;;;5093379;28;20364;-55
2022/06/20 02:27:10;;;;;;;25.90;9.75;;;18.40;99.90;;;;;;5092574;28;20027;-54
2022/06/20 02:29:35;;;;;;;36.70;11.75;;;18.40;99.90;;;;;;5093308;28;20024;-54
2022/06/20 02:32:17;;;;;;;34.50;11.48;;;18.30;99.90;;;;;;5085545;28;20036;-51
2022/06/20 02:34:44;;;;;;;26.55;10.85;;;18.30;99.90;;;;;;5072796;28;20464;-54
2022/06/20 02:37:14;;;;;;;40.22;10.90;;;18.30;99.90;;;;;;5072770;28;20047;-51
2022/06/20 02:39:41;;;;;;;36.38;10.65;;;18.40;99.90;;;;;;5087713;28;20028;-53
2022/06/20 02:42:17;;;;;;;41.10;11.43;;;18.30;99.90;;;;;;5083788;28;20026;-55
2022/06/20 02:44:46;;;;;;;31.73;11.25;;;18.40;99.90;;;;;;5092592;28;20059;-52
2022/06/20 02:47:34;;;;;;;39.88;11.15;;;18.40;99.90;;;;;;5092684;28;20114;-54
2022/06/20 02:50:02;;;;;;;40.50;10.85;;;18.30;99.90;;;;;;5092448;28;20355;-52
2022/06/20 02:52:45;;;;;;;31.58;11.45;;;18.20;99.90;;;;;;5084661;28;20388;-53
2022/06/20 02:55:12;;;;;;;31.10;10.23;;;18.30;99.90;;;;;;5072806;28;20489;-55
2022/06/20 02:57:42;;;;;;;35.58;10.30;;;18.30;99.90;;;;;;5073809;28;20056;-55
2022/06/20 03:00:14;;;;;;;27.55;11.07;;;18.30;99.90;;;;;;5076791;28;20013;-54
2022/06/20 03:02:45;;;;;;;37.78;11.55;;;18.30;99.90;;;;;;5092490;28;20391;-53
2022/06/20 03:05:12;;;;;;;27.77;11.55;;;18.30;99.90;;;;;;5089844;28;20124;-51
2022/06/20 03:07:41;;;;;;;30.15;11.07;;;18.30;99.90;;;;;;5092132;28;20361;-54
2022/06/20 03:10:38;;;;;;;32.97;10.88;;;18.30;99.90;;;;;;5085946;28;20084;-54
2022/06/20 03:13:04;;;;;;;48.72;11.35;;;18.30;99.90;;;;;;5082589;28;20061;-53
2022/06/20 03:15:31;;;;;;;24.52;10.77;;;18.40;99.90;;;;;;5090995;28;20020;-55
2022/06/20 03:17:58;;;;;;;30.20;11.18;;;18.40;99.90;;;;;;5090635;28;20024;-55
2022/06/20 03:20:25;;;;;;;34.45;11.23;;;18.40;99.90;;;;;;5084165;28;20025;-54
2022/06/20 03:23:06;;;;;;;41.10;11.23;;;18.40;99.90;;;;;;5092274;28;20083;-54
2022/06/20 03:25:32;;;;;;;32.83;11.48;;;18.40;99.90;;;;;;5091983;28;20103;-53
2022/06/20 03:27:58;;;;;;;38.42;12.65;;;18.30;99.90;;;;;;5089225;28;20395;-54
2022/06/20 03:30:36;;;;;;;31.52;10.80;;;18.40;99.90;;;;;;5089127;28;20032;-54
2022/06/20 03:33:05;;;;;;;34.03;11.25;;;18.40;99.90;;;;;;5071535;28;20031;-55
2022/06/20 03:35:32;;;;;;;30.00;10.95;;;18.50;99.90;;;;;;5072908;28;20016;-56
2022/06/20 03:38:00;;;;;;;16.90;11.07;;;18.50;99.90;;;;;;5071619;28;20021;-55
2022/06/20 03:40:26;;;;;;;32.55;10.60;;;18.50;99.90;;;;;;5083576;28;20056;-54
2022/06/20 03:42:53;;;;;;;42.67;10.98;;;18.50;99.90;;;;;;5074156;28;20055;-54
2022/06/20 03:45:21;;;;;;;36.65;12.30;;;18.50;99.90;;;;;;5070040;28;20025;-54
2022/06/20 03:48:12;;;;;;;37.40;11.25;;;18.60;99.90;;;;;;5071503;28;20024;-55
2022/06/20 03:50:58;;;;;;;41.17;11.82;;;18.60;99.90;;;;;;5075235;28;20020;-53
2022/06/20 03:53:30;;;;;;;29.63;12.00;;;18.60;99.90;;;;;;5090247;28;20043;-56
2022/06/20 03:56:06;;;;;;;28.92;11.60;;;18.60;99.90;;;;;;5089702;28;20020;-55
2022/06/20 03:58:44;;;;;;;38.08;11.65;;;18.70;99.90;;;;;;5091395;28;20074;-55
2022/06/20 04:01:45;;;;;;;32.38;10.98;;;18.70;99.90;;;;;;5081395;28;20028;-54
2022/06/20 04:04:21;;;;;;;35.05;11.65;;;18.90;99.90;;;;;;5069971;28;20093;-55
2022/06/20 04:07:05;;;;;;;40.78;12.88;;;18.90;99.90;;;;;;5079559;28;20371;-55
2022/06/20 04:12:50;;;;;;;31.65;10.48;;;19.10;99.90;;;;;;5075189;28;20070;-54
2022/06/20 04:15:22;;;;;;;33.30;11.32;;;19.30;99.90;;;;;;5090464;28;20387;-53
2022/06/20 04:20:51;;;;;;;32.00;11.07;;;19.50;99.90;;;;;;5075659;28;20100;-54
2022/06/20 04:23:48;;;;;;;35.67;12.63;;;19.60;99.90;;;;;;5090923;28;20028;-55
2022/06/20 04:26:24;;;;;;;30.13;12.93;;;19.70;99.90;;;;;;5075360;28;20506;-55
2022/06/20 04:29:01;;;;;;;37.20;12.63;;;19.90;99.90;;;;;;5071719;28;20033;-55
2022/06/20 04:31:39;;;;;;;34.50;11.63;;;20.00;99.90;;;;;;5071664;28;20040;-56
2022/06/20 04:34:40;;;;;;;32.45;12.48;;;20.00;99.90;;;;;;5070489;28;20028;-53
2022/06/20 04:37:40;;;;;;;30.13;11.60;;;20.00;99.90;;;;;;5065876;28;20067;-55
2022/06/20 04:40:23;;;;;;;37.47;11.57;;;20.10;99.90;;;;;;5067679;28;20036;-52
2022/06/20 04:43:15;;;;;;;19.05;10.57;;;20.20;99.90;;;;;;5074628;28;20121;-54
2022/06/20 04:46:05;;;;;;;23.42;11.25;;;20.50;99.90;;;;;;5090339;28;20034;-54
2022/06/20 04:48:31;;;;;;;34.05;12.80;;;20.70;99.90;;;;;;5075320;28;20038;-56
2022/06/20 04:51:00;;;;;;;26.52;11.82;;;20.80;99.90;;;;;;5070495;28;20434;-54
2022/06/20 04:53:33;;;;;;;34.10;11.52;;;20.70;99.90;;;;;;5070027;28;20024;-56
2022/06/20 04:56:03;;;;;;;33.35;12.73;;;20.80;99.90;;;;;;5071576;28;20124;-55
2022/06/20 04:58:52;;;;;;;37.47;12.90;;;20.90;99.90;;;;;;5081445;28;20041;-55
2022/06/20 05:01:20;;;;;;;22.67;12.18;;;21.10;99.90;;;;;;5070261;28;20444;-56
2022/06/20 05:03:55;;;;;;;34.85;12.07;;;21.30;99.90;;;;;;5070288;28;20396;-56
2022/06/20 05:06:30;;;;;;;26.75;12.07;;;21.50;99.90;;;;;;5079180;28;20437;-56
2022/06/20 05:09:03;;;;;;;23.17;10.25;;;21.70;99.90;;;;;;5072128;28;20032;-55
2022/06/20 05:11:38;;;;;;;40.72;12.07;;;22.00;99.90;;;;;;5070204;28;20123;-54
2022/06/20 05:14:19;;;;;;;27.52;11.02;;;22.10;99.90;;;;;;5076787;28;20123;-54
2022/06/20 05:16:49;;;;;;;32.83;11.88;;;22.30;99.90;;;;;;5090277;28;20342;-56
2022/06/20 05:19:32;;;;;;;28.30;11.52;;;22.50;99.90;;;;;;5069799;28;20353;-56
2022/06/20 05:22:08;;;;;;;31.83;11.15;;;22.60;99.90;;;;;;5086886;28;20506;-57
2022/06/20 05:24:38;;;;;;;28.98;9.73;;;22.80;99.90;;;;;;5090260;28;20028;-55
2022/06/20 05:27:44;;;;;;;32.53;10.70;;;23.10;99.90;;;;;;5090029;28;20025;-55
2022/06/20 05:30:18;;;;;;;30.75;10.60;;;23.30;99.90;;;;;;5070799;28;20098;-53
2022/06/20 05:33:05;;;;;;;36.97;10.63;;;23.40;99.90;;;;;;5090042;28;20115;-54
2022/06/20 05:36:04;;;;;;;31.80;11.57;;;23.50;99.90;;;;;;5089821;28;20383;-54
2022/06/20 05:38:43;;;;;;;32.72;11.55;;;23.50;99.90;;;;;;5052040;28;20485;-53
2022/06/20 05:41:16;;;;;;;32.88;10.32;;;23.70;99.90;;;;;;5088861;28;20039;-53
2022/06/20 05:43:42;;;;;;;26.15;9.30;;;23.70;99.90;;;;;;5088178;28;20036;-56
2022/06/20 05:46:23;;;;;;;22.15;10.27;;;23.90;99.90;;;;;;5089430;28;20039;-54
2022/06/20 05:48:56;;;;;;;22.00;9.90;;;24.00;99.90;;;;;;5093604;28;20063;-53
2022/06/20 05:51:25;;;;;;;22.63;10.27;;;24.30;99.90;;;;;;5082682;28;20024;-56
2022/06/20 05:54:01;;;;;;;29.25;9.18;;;24.40;99.90;;;;;;5073374;28;20123;-55
2022/06/20 05:56:39;;;;;;;28.08;10.27;;;24.60;99.90;;;;;;5074366;28;20021;-53
2022/06/20 05:59:07;;;;;;;23.35;9.23;;;24.80;99.90;;;;;;5073541;28;20094;-53
2022/06/20 06:01:38;;;;;;;24.88;9.48;;;25.00;99.90;;;;;;5074967;28;20088;-52
2022/06/20 06:04:07;;;;;;;29.00;9.73;;;25.20;99.90;;;;;;5076847;28;20422;-50
2022/06/20 06:06:41;;;;;;;15.90;9.23;;;25.30;99.90;;;;;;5085745;28;20036;-55
2022/06/20 06:09:19;;;;;;;21.02;8.30;;;25.60;99.90;;;;;;5092364;28;20107;-52
2022/06/20 06:12:00;;;;;;;21.67;8.70;;;25.90;99.90;;;;;;5074762;28;20025;-56
2022/06/20 06:14:36;;;;;;;20.92;9.38;;;26.30;99.90;;;;;;5086424;28;20032;-54
2022/06/20 06:17:12;;;;;;;17.58;8.50;;;26.40;99.90;;;;;;5072449;28;20031;-56
2022/06/20 06:19:44;;;;;;;23.70;9.13;;;26.30;99.90;;;;;;5082068;28;20463;-57
2022/06/20 06:22:36;;;;;;;23.48;9.75;;;26.30;99.90;;;;;;5092869;28;20042;-57
2022/06/20 06:25:31;;;;;;;21.70;8.52;;;26.20;99.90;;;;;;5092531;28;20062;-56
2022/06/20 06:28:16;;;;;;;28.73;9.98;;;26.10;99.90;;;;;;5091730;28;20028;-56
2022/06/20 06:30:45;;;;;;;17.13;9.38;;;25.90;99.90;;;;;;5090833;28;20475;-54
2022/06/20 06:33:32;;;;;;;31.55;9.80;;;26.00;99.90;;;;;;5070127;28;20020;-53
2022/06/20 06:36:23;;;;;;;33.50;9.77;;;25.90;99.90;;;;;;5070479;28;20446;-55
2022/06/20 06:39:25;;;;;;;33.10;9.70;;;25.90;99.90;;;;;;5070480;28;20025;-52
2022/06/20 06:41:57;;;;;;;25.10;10.93;;;25.70;99.90;;;;;;5071188;28;20050;-55
2022/06/20 06:44:43;;;;;;;26.05;10.85;;;25.50;99.90;;;;;;5071126;28;20031;-53
2022/06/20 06:47:32;;;;;;;28.15;11.57;;;25.30;99.90;;;;;;5083586;28;20062;-53
2022/06/20 06:50:12;;;;;;;20.52;10.35;;;25.00;99.90;;;;;;5089992;28;20028;-53
2022/06/20 06:52:43;;;;;;;22.35;10.00;;;24.80;99.90;;;;;;5083315;28;20086;-52
2022/06/20 06:55:40;;;;;;;26.55;10.32;;;24.70;99.90;;;;;;5090646;28;20016;-54
2022/06/20 06:58:11;;;;;;;25.35;11.00;;;24.50;99.90;;;;;;5093479;28;20031;-54
2022/06/20 07:00:54;;;;;;;23.42;10.18;;;24.40;99.90;;;;;;5089161;28;20024;-57
2022/06/20 07:03:37;;;;;;;20.48;9.07;;;24.20;99.90;;;;;;5087101;28;20048;-50
2022/06/20 07:06:09;;;;;;;26.80;10.40;;;24.00;99.90;;;;;;5071186;28;20028;-54
2022/06/20 07:08:42;;;;;;;20.60;11.77;;;23.90;99.90;;;;;;5071935;28;20016;-50
2022/06/20 07:11:24;;;;;;;17.90;10.27;;;23.70;99.90;;;;;;5079868;28;20103;-54
2022/06/20 07:14:15;;;;;;;37.00;10.50;;;23.60;99.90;;;;;;5091610;28;20505;-53
2022/06/20 07:16:48;;;;;;;40.30;11.88;;;23.60;99.90;;;;;;5091232;28;20024;-50
2022/06/20 07:19:14;;;;;;;;;;;23.30;99.90;;;;;;5090276;28;20540;-53
2022/06/20 07:21:42;;;;;;;34.45;10.43;;;22.90;99.90;;;;;;5077578;28;19911;-54
2022/06/20 07:24:29;;;;;;;28.08;9.50;;;22.90;99.90;;;;;;5068707;28;20036;-53
2022/06/20 07:26:55;;;;;;;30.27;10.77;;;22.70;99.90;;;;;;5069561;28;20356;-50
2022/06/20 07:29:40;;;;;;;26.38;9.52;;;22.60;99.90;;;;;;5068560;28;20017;-51
2022/06/20 07:32:12;;;;;;;34.03;10.05;;;22.50;99.90;;;;;;5085154;28;20208;-52
2022/06/20 07:34:43;;;;;;;23.95;9.15;;;22.30;99.90;;;;;;5090789;28;20028;-53
2022/06/20 07:37:13;;;;;;;29.10;9.85;;;22.20;99.90;;;;;;5090333;28;20027;-52
2022/06/20 07:39:49;;;;;;;28.60;10.38;;;22.10;99.90;;;;;;5082508;28;20504;-54
2022/06/20 07:42:27;;;;;;;20.70;10.15;;;22.10;99.90;;;;;;5074761;28;20024;-53
2022/06/20 07:45:22;;;;;;;24.00;10.10;;;22.00;99.90;;;;;;5091776;28;20039;-55
2022/06/20 07:47:57;;;;;;;33.30;10.38;;;21.90;99.90;;;;;;5090441;28;20436;-54
2022/06/20 07:50:34;;;;;;;25.48;10.10;;;21.80;99.90;;;;;;5091122;28;20055;-54
2022/06/20 07:53:14;;;;;;;29.52;10.45;;;21.60;99.90;;;;;;5091638;28;20073;-52
2022/06/20 07:55:45;;;;;;;25.13;10.07;;;21.30;99.90;;;;;;5091616;28;20383;-55
2022/06/20 07:58:30;;;;;;;33.75;10.02;;;21.00;99.90;;;;;;5091416;28;20363;-52
2022/06/20 08:00:57;;;;;;;26.38;10.90;;;20.80;99.90;;;;;;5079273;28;20046;-55
2022/06/20 08:03:30;;;;;;;34.85;10.10;;;20.70;99.90;;;;;;5090560;28;20024;-54
2022/06/20 08:05:59;;;;;;;;;;;20.80;99.90;;;;;;5091668;28;20024;-55
2022/06/20 08:08:26;;;;;;;21.27;9.73;;;20.80;99.90;;;;;;5091092;28;19908;-54
2022/06/20 08:11:08;;;;;;;25.52;10.40;;;20.90;99.90;;;;;;5090811;28;20085;-54
2022/06/20 08:13:36;;;;;;;22.20;11.23;;;21.00;99.90;;;;;;5090944;28;20069;-54
2022/06/20 08:16:29;;;;;;;25.77;9.90;;;21.20;99.90;;;;;;5091286;28;20387;-53
2022/06/20 08:18:54;;;;;;;18.95;9.57;;;21.50;99.90;;;;;;5086264;28;20398;-53
2022/06/20 08:21:34;;;;;;;32.78;9.40;;;21.70;99.90;;;;;;5070591;28;20112;-55
2022/06/20 08:24:02;;;;;;;19.95;9.98;;;21.90;99.90;;;;;;5070674;28;20159;-54
2022/06/20 08:26:32;;;;;;;33.38;10.45;;;22.00;99.90;;;;;;5071141;28;20545;-52
2022/06/20 08:29:04;;;;;;;27.40;9.20;;;22.20;99.90;;;;;;5070706;28;20078;-55
2022/06/20 08:31:52;;;;;;;24.63;10.85;;;22.30;99.90;;;;;;5070650;28;20025;-53
2022/06/20 08:34:41;;;;;;;29.95;9.30;;;22.40;99.90;;;;;;5069282;28;20027;-53
2022/06/20 08:37:20;;;;;;;24.23;10.15;;;22.50;99.90;;;;;;5070886;28;20063;-54
2022/06/20 08:40:27;;;;;;;26.50;11.40;;;22.60;99.90;;;;;;5071616;28;20048;-54
2022/06/20 08:43:05;;;;;;;23.10;10.38;;;22.80;99.90;;;;;;5070383;28;20044;-49
2022/06/20 08:45:50;;;;;;;21.42;9.82;;;22.90;99.90;;;;;;5076683;28;20020;-55
2022/06/20 08:48:30;;;;;;;33.72;10.60;;;23.00;99.90;;;;;;5091223;28;20025;-51
2022/06/20 08:51:39;;;;;;;17.60;10.05;;;23.10;99.90;;;;;;5091765;28;20020;-54
2022/06/20 08:54:29;;;;;;;27.55;9.68;;;23.10;99.90;;;;;;5091731;28;20012;-53
2022/06/20 08:56:59;;;;;;;16.02;8.80;;;23.30;99.90;;;;;;5074831;28;20088;-53
2022/06/20 08:59:54;;;;;;;27.90;11.02;;;23.40;99.90;;;;;;5071407;28;20109;-58
2022/06/20 09:02:35;;;;;;;26.23;10.70;;;23.60;99.90;;;;;;5086056;28;20064;-52
2022/06/20 09:05:09;;;;;;;32.13;9.50;;;23.70;99.90;;;;;;5090154;28;20491;-51
2022/06/20 09:07:41;;;;;;;20.38;9.95;;;24.00;99.90;;;;;;5081900;28;20028;-51
2022/06/20 09:10:36;;;;;;;22.05;9.18;;;24.30;99.90;;;;;;5089518;28;20034;-51
2022/06/20 09:13:04;;;;;;;21.25;9.05;;;24.80;99.90;;;;;;5089803;28;20421;-54
2022/06/20 09:15:44;;;;;;;28.88;8.73;;;24.90;99.90;;;;;;5093209;28;20111;-55
2022/06/20 09:18:48;;;;;;;30.60;10.63;;;25.10;99.90;;;;;;5091474;28;20019;-54
2022/06/20 09:22:04;;;;;;;22.13;9.65;;;25.60;99.90;;;;;;5054267;28;20384;-54
2022/06/20 09:24:56;;;;;;;28.80;9.18;;;25.90;99.90;;;;;;5028408;28;20022;-53
2022/06/20 09:27:52;;;;;;;15.50;8.73;;;25.60;99.90;;;;;;5086251;28;20032;-53
2022/06/20 09:30:25;;;;;;;24.55;9.15;;;25.90;99.90;;;;;;5068474;28;20547;-53
2022/06/20 09:33:29;;;;;;;19.40;7.90;;;26.00;99.90;;;;;;5091997;28;20460;-51
2022/06/20 09:36:23;;;;;;;19.52;7.78;;;26.20;98.60;;;;;;5082533;28;20036;-52
2022/06/20 09:38:57;;;;;;;17.20;7.32;;;26.60;99.60;;;;;;5093749;28;20131;-53
2022/06/20 09:42:00;;;;;;;15.05;6.88;;;26.70;99.60;;;;;;5093026;28;20067;-53
2022/06/20 09:44:37;;;;;;;23.07;7.37;;;26.70;96.90;;;;;;5094871;28;20051;-52
2022/06/20 09:47:26;;;;;;;21.48;6.43;;;26.50;97.20;;;;;;5094296;28;20031;-55
2022/06/20 09:50:17;;;;;;;18.15;6.80;;;26.60;96.10;;;;;;5090924;28;20070;-54
2022/06/20 09:53:19;;;;;;;32.88;6.65;;;26.90;94.50;;;;;;5092672;28;20034;-53
2022/06/20 09:56:01;;;;;;;41.45;9.20;;;26.70;93.70;;;;;;5089834;28;20091;-52
2022/06/20 09:59:04;;;;;;;17.52;6.45;;;26.70;95.10;;;;;;5078350;28;20456;-52
2022/06/20 10:02:08;;;;;;;23.13;7.30;;;26.90;95.80;;;;;;5072451;28;20043;-50
2022/06/20 10:05:04;;;;;;;21.33;6.43;;;26.40;95.10;;;;;;5058440;28;20471;-58
2022/06/20 10:07:45;;;;;;;21.00;5.82;;;26.50;96.10;;;;;;5059977;28;20032;-55
2022/06/20 10:10:41;;;;;;;21.83;5.50;;;26.60;93.50;;;;;;5093550;28;20012;-54
2022/06/20 10:13:24;;;;;;;20.00;6.80;;;27.20;96.00;;;;;;5076666;28;20033;-55
2022/06/20 10:16:09;;;;;;;22.83;6.70;;;27.30;93.60;;;;;;5074143;28;20055;-56
2022/06/20 10:18:57;;;;;;;23.85;6.93;;;27.70;92.10;;;;;;5075208;28;20024;-51
2022/06/20 10:21:50;;;;;;;22.08;7.55;;;28.00;90.40;;;;;;5075824;28;20033;-49
2022/06/20 10:24:51;;;;;;;21.90;6.15;;;28.00;90.80;;;;;;5092910;28;20024;-51
2022/06/20 10:27:36;;;;;;;21.80;6.72;;;28.80;89.50;;;;;;5092867;28;20043;-51
2022/06/20 10:30:06;;;;;;;23.40;6.25;;;28.40;90.90;;;;;;5094249;28;20024;-51
2022/06/20 10:32:38;;;;;;;18.08;5.88;;;28.60;90.40;;;;;;5086225;28;20045;-54
2022/06/20 10:35:42;;;;;;;17.02;6.00;;;28.50;91.10;;;;;;5091622;28;20103;-62
2022/06/20 10:38:18;;;;;;;15.43;6.13;;;28.70;91.20;;;;;;5084534;28;20032;-55
2022/06/20 10:40:50;;;;;;;26.83;6.80;;;29.00;92.10;;;;;;5082499;28;20387;-51
2022/06/20 10:43:21;;;;;;;22.88;6.68;;;29.10;92.10;;;;;;5084249;28;20177;-52
2022/06/20 10:45:58;;;;;;;29.90;7.40;;;29.30;91.00;;;;;;5103002;28;20058;-53
2022/06/20 10:48:36;;;;;;;21.83;6.72;;;29.50;90.60;;;;;;5100978;28;20094;-53
2022/06/20 10:51:23;;;;;;;16.02;6.45;;;29.40;90.20;;;;;;5102494;28;20040;-50
2022/06/20 10:54:18;;;;;;;23.30;6.57;;;29.20;90.10;;;;;;5082904;28;20027;-51
2022/06/20 10:56:59;;;;;;;29.70;6.18;;;29.40;90.90;;;;;;5082469;28;20107;-51
2022/06/20 10:59:37;;;;;;;18.85;6.15;;;29.50;90.20;;;;;;5091903;28;20039;-52
2022/06/20 11:02:12;;;;;;;25.50;6.72;;;29.60;89.20;;;;;;5101222;28;20490;-51
2022/06/20 11:05:12;;;;;;;26.42;6.72;;;29.60;89.10;;;;;;5103080;28;20035;-54
2022/06/20 11:07:58;;;;;;;19.27;6.85;;;29.70;86.60;;;;;;5095049;28;20035;-53
2022/06/20 11:10:33;;;;;;;26.67;7.72;;;29.40;86.90;;;;;;5082061;28;20039;-53
2022/06/20 11:13:23;;;;;;;16.00;6.18;;;29.80;89.10;;;;;;5083311;28;20032;-54
2022/06/20 11:16:10;;;;;;;19.25;6.70;;;29.90;83.90;;;;;;5102628;28;20056;-55
2022/06/20 11:18:47;;;;;;;24.85;6.88;;;29.80;83.80;;;;;;5099730;28;20042;-53
2022/06/20 11:21:38;;;;;;;22.23;6.88;;;30.00;82.00;;;;;;5082584;28;20069;-55
2022/06/20 11:24:27;;;;;;;16.23;6.70;;;30.20;81.50;;;;;;5081586;28;20031;-54
2022/06/20 11:27:12;;;;;;;24.17;6.50;;;30.10;80.50;;;;;;5091829;28;20080;-52
2022/06/20 11:29:52;;;;;;;22.38;7.25;;;29.90;80.50;;;;;;5101808;28;20123;-52
2022/06/20 11:36:04;;;;;;;19.30;6.88;;;29.80;83.20;;;;;;5101593;28;20358;-51
2022/06/20 11:38:51;;;;;;;27.00;7.13;;;29.70;83.50;;;;;;5089811;28;20046;-54
2022/06/20 11:41:25;;;;;;;25.50;7.10;;;29.80;83.00;;;;;;5081846;28;20097;-53
2022/06/20 11:43:50;;;;;;;13.75;6.20;;;29.90;81.20;;;;;;5089008;28;20059;-54
2022/06/20 11:46:28;;;;;;;20.02;6.57;;;30.10;82.50;;;;;;5100461;28;20466;-54
2022/06/20 11:49:28;;;;;;;19.63;6.53;;;30.00;81.60;;;;;;5085394;28;20039;-54
2022/06/20 11:52:01;;;;;;;24.05;6.40;;;30.10;82.60;;;;;;5080193;28;20035;-55
2022/06/20 11:54:54;;;;;;;35.88;7.82;;;30.40;83.00;;;;;;5089442;28;20095;-53
2022/06/20 11:57:57;;;;;;;23.98;7.10;;;30.60;83.60;;;;;;5071823;28;20032;-57
2022/06/20 12:00:31;;;;;;;17.33;7.18;;;31.40;79.10;;;;;;5080574;28;20028;-53
2022/06/20 12:03:31;;;;;;;22.58;6.22;;;31.90;80.10;;;;;;5088837;28;20499;-56
2022/06/20 12:06:01;;;;;;;20.67;6.10;;;32.40;77.20;;;;;;5090610;28;20043;-55
2022/06/20 12:08:36;;;;;;;16.95;6.55;;;32.70;77.50;;;;;;5092394;28;20059;-54
2022/06/20 12:11:08;;;;;;;21.20;6.45;;;32.90;77.20;;;;;;5092663;28;20124;-54
2022/06/20 12:13:43;;;;;;;25.25;7.05;;;32.50;73.40;;;;;;5092247;28;20020;-55
2022/06/20 12:16:37;;;;;;;22.27;6.70;;;32.10;78.00;;;;;;5092177;28;20132;-55
2022/06/20 12:25:21;;;;;;;16.05;6.93;;;32.70;72.80;;;;;;5072351;28;20042;-54
2022/06/20 12:27:47;;;;;;;25.65;7.47;;;32.50;66.80;;;;;;5070634;28;20043;-56
2022/06/20 12:30:15;;;;;;;23.95;7.20;;;33.10;66.70;;;;;;5071083;28;20427;-50
2022/06/20 12:32:46;;;;;;;30.50;7.68;;;33.70;67.50;;;;;;5070743;28;20020;-53
2022/06/20 12:35:18;;;;;;;23.27;7.15;;;33.10;65.50;;;;;;5070463;28;20094;-54
2022/06/20 12:37:54;;;;;;;14.80;7.05;;;34.60;66.20;;;;;;5070851;28;20021;-54
2022/06/20 12:40:20;;;;;;;21.98;6.88;;;34.50;62.40;;;;;;5079579;28;20407;-54
2022/06/20 12:43:09;;;;;;;19.67;7.82;;;34.90;62.60;;;;;;5092114;28;20028;-54
2022/06/20 12:45:40;;;;;;;21.85;6.47;;;34.00;61.30;;;;;;5092065;28;20107;-55
2022/06/20 12:48:15;;;;;;;26.65;7.53;;;35.60;65.30;;;;;;5091330;28;20029;-55
2022/06/20 12:51:05;;;;;;;18.95;6.57;;;36.00;60.10;;;;;;5079564;28;20028;-55
2022/06/20 12:53:58;;;;;;;29.05;7.78;;;35.20;57.70;;;;;;5072810;28;20032;-56
2022/06/20 12:56:54;;;;;;;19.70;7.10;;;36.40;57.40;;;;;;5080495;28;20024;-54
2022/06/20 12:59:44;;;;;;;19.75;6.55;;;36.50;55.90;;;;;;5087920;28;20008;-55
2022/06/20 13:02:31;;;;;;;26.35;7.07;;;36.90;57.80;;;;;;5070919;28;20020;-56
2022/06/20 13:05:34;;;;;;;16.52;6.38;;;36.50;56.60;;;;;;5071483;28;20021;-55
2022/06/20 13:08:07;;;;;;;25.27;7.90;;;35.50;55.20;;;;;;5071522;28;20025;-52
2022/06/20 13:10:40;;;;;;;16.88;7.25;;;34.70;58.10;;;;;;5070150;28;20033;-54
2022/06/20 13:13:34;;;;;;;23.20;8.20;;;34.10;57.90;;;;;;5081720;28;20349;-52
2022/06/20 13:16:32;;;;;;;27.88;9.38;;;33.80;58.40;;;;;;5081700;28;20046;-55
2022/06/20 13:19:12;;;;;;;19.05;6.60;;;33.30;60.50;;;;;;5101192;28;20019;-53
2022/06/20 13:21:46;;;;;;;23.23;8.38;;;33.20;61.80;;;;;;5100705;28;20031;-54
2022/06/20 13:24:15;;;;;;;22.90;7.90;;;32.80;62.10;;;;;;5099289;28;20439;-55
2022/06/20 13:26:50;;;;;;;31.25;8.57;;;32.50;65.30;;;;;;5093973;28;20032;-54
2022/06/20 13:29:24;;;;;;;25.48;7.90;;;32.10;64.50;;;;;;5080853;28;20142;-54
2022/06/20 13:31:56;;;;;;;23.90;8.52;;;31.80;66.30;;;;;;5080703;28;20378;-51
2022/06/20 13:34:32;;;;;;;22.83;8.30;;;30.80;62.60;;;;;;5079848;28;20039;-54
2022/06/20 13:37:12;;;;;;;22.73;7.80;;;30.80;64.90;;;;;;5080467;28;20031;-52
2022/06/20 13:39:57;;;;;;;22.30;7.78;;;30.80;66.50;;;;;;5079364;28;20036;-53
2022/06/20 13:42:31;;;;;;;26.15;7.60;;;30.40;69.90;;;;;;5079491;28;20029;-52
2022/06/20 13:45:08;;;;;;;16.92;7.22;;;30.40;68.30;;;;;;5080424;28;20087;-55
2022/06/20 13:47:51;;;;;;;25.30;7.90;;;30.60;68.10;;;;;;5079298;28;20425;-54
2022/06/20 13:50:32;;;;;;;21.20;8.85;;;31.20;70.20;;;;;;5079634;28;20539;-54